Time;durP1;ratioP1;P1;durP2;ratioP2;P2;SDS_P1;SDS_P2;PMS_P1;PMS_P2;Temp;Humidity;BMP_temperature;BMP_pressure;BME280_temperature;BME280_humidity;BME280_pressure;Samples;Min_cycle;Max_cycle;Signal;HPM_P1;HPM_P2
2023/04/09 00:01:13;;;;;;;25.83;17.65;;;;;;;;;;5037269;28;20128;-82
2023/04/09 00:03:40;;;;;;;26.90;17.35;;;;;;;;;;5036941;28;20049;-84
2023/04/09 00:06:07;;;;;;;26.08;16.80;;;;;;;;;;5036968;28;20049;-81
2023/04/09 00:08:33;;;;;;;26.58;17.20;;;;;;;;;;5037133;28;20583;-82
2023/04/09 00:11:00;;;;;;;24.98;17.63;;;;;;;;;;5038092;28;20535;-82
2023/04/09 00:13:27;;;;;;;24.45;16.92;;;;;;;;;;5037550;28;20049;-82
2023/04/09 00:15:53;;;;;;;25.83;16.98;;;;;;;;;;5039832;28;20072;-82
2023/04/09 00:18:21;;;;;;;25.95;18.23;;;;;;;;;;5037405;28;20133;-83
2023/04/09 00:20:48;;;;;;;24.73;16.23;;;;;;;;;;5036355;28;20627;-83
2023/04/09 00:23:15;;;;;;;24.92;16.35;;;;;;;;;;5036354;28;20128;-83
2023/04/09 00:25:41;;;;;;;25.10;16.67;;;;;;;;;;5036688;28;20524;-81
2023/04/09 00:28:08;;;;;;;22.35;15.52;;;;;;;;;;5047449;28;20041;-81
2023/04/09 00:30:34;;;;;;;20.90;13.60;;;;;;;;;;5048876;28;20082;-81
2023/04/09 00:33:01;;;;;;;19.80;12.20;;;;;;;;;;5049920;28;20073;-82
2023/04/09 00:35:29;;;;;;;22.27;12.25;;;;;;;;;;5051334;28;20117;-82
2023/04/09 00:37:56;;;;;;;17.25;11.65;;;;;;;;;;5050026;28;20045;-83
2023/04/09 00:40:22;;;;;;;16.80;10.93;;;;;;;;;;5051124;28;20053;-82
2023/04/09 00:42:49;;;;;;;18.25;10.88;;;;;;;;;;5053554;28;20046;-80
2023/04/09 00:45:16;;;;;;;17.27;10.18;;;;;;;;;;5051368;28;20042;-83
2023/04/09 00:47:44;;;;;;;17.27;10.55;;;;;;;;;;5047098;28;20071;-83
2023/04/09 00:50:11;;;;;;;19.17;11.23;;;;;;;;;;5052229;28;20053;-80
2023/04/09 00:52:39;;;;;;;16.73;10.07;;;;;;;;;;5053344;28;20054;-82
2023/04/09 00:55:07;;;;;;;17.55;9.50;;;;;;;;;;5052408;28;20091;-82
2023/04/09 00:57:34;;;;;;;16.25;9.85;;;;;;;;;;5047742;28;20077;-82
2023/04/09 01:00:02;;;;;;;13.75;8.95;;;;;;;;;;5051060;28;20045;-80
2023/04/09 01:02:30;;;;;;;17.05;10.10;;;;;;;;;;5052792;28;20097;-81
2023/04/09 01:04:57;;;;;;;15.80;9.40;;;;;;;;;;5052675;28;20037;-81
2023/04/09 01:07:33;;;;;;;15.25;9.75;;;;;;;;;;5052571;28;20133;-82
2023/04/09 01:10:09;;;;;;;14.93;9.10;;;;;;;;;;5051200;28;20049;-82
2023/04/09 01:12:46;;;;;;;15.15;9.20;;;;;;;;;;5052977;28;20072;-81
2023/04/09 01:15:18;;;;;;;14.23;8.30;;;;;;;;;;5053926;28;20037;-82
2023/04/09 01:17:51;;;;;;;17.63;9.00;;;;;;;;;;5051822;28;20148;-82
2023/04/09 01:20:22;;;;;;;14.68;8.07;;;;;;;;;;5052453;28;20037;-82
2023/04/09 01:22:57;;;;;;;15.70;8.40;;;;;;;;;;5055302;28;20117;-81
2023/04/09 01:25:43;;;;;;;13.90;7.93;;;;;;;;;;5055991;28;20069;-81
2023/04/09 01:28:19;;;;;;;14.57;8.52;;;;;;;;;;5055645;28;20084;-82
2023/04/09 01:30:49;;;;;;;13.60;8.40;;;;;;;;;;5054517;28;20105;-82
2023/04/09 01:33:18;;;;;;;15.25;8.18;;;;;;;;;;5054931;28;20045;-81
2023/04/09 01:35:46;;;;;;;14.93;8.57;;;;;;;;;;5051565;28;20046;-82
2023/04/09 01:38:19;;;;;;;13.40;8.77;;;;;;;;;;5039067;28;20132;-82
2023/04/09 01:40:46;;;;;;;12.30;7.78;;;;;;;;;;5042380;28;20069;-81
2023/04/09 01:43:13;;;;;;;13.88;8.65;;;;;;;;;;5052744;28;20093;-81
2023/04/09 01:45:42;;;;;;;12.95;8.02;;;;;;;;;;5053563;28;20104;-81
2023/04/09 01:48:10;;;;;;;12.50;8.18;;;;;;;;;;5055362;28;20069;-82
2023/04/09 01:50:37;;;;;;;13.90;8.30;;;;;;;;;;5054987;28;20037;-81
2023/04/09 01:53:04;;;;;;;12.68;7.47;;;;;;;;;;5054975;28;20060;-82
2023/04/09 01:55:30;;;;;;;13.23;8.02;;;;;;;;;;5057247;28;20081;-82
2023/04/09 01:57:57;;;;;;;13.27;8.23;;;;;;;;;;5057427;28;20030;-81
2023/04/09 02:00:26;;;;;;;10.70;7.38;;;;;;;;;;5058477;28;20045;-81
2023/04/09 02:02:58;;;;;;;11.05;7.18;;;;;;;;;;5058792;28;20041;-81
2023/04/09 02:05:29;;;;;;;12.13;7.55;;;;;;;;;;5058836;28;20408;-81
2023/04/09 02:07:58;;;;;;;12.18;6.88;;;;;;;;;;5058711;28;20033;-80
2023/04/09 02:10:27;;;;;;;13.82;8.10;;;;;;;;;;5057304;28;20049;-82
2023/04/09 02:12:55;;;;;;;9.70;6.85;;;;;;;;;;5056585;28;20489;-82
2023/04/09 02:15:23;;;;;;;11.80;7.38;;;;;;;;;;5057199;28;20057;-83
2023/04/09 02:17:50;;;;;;;11.35;7.32;;;;;;;;;;5056468;28;20049;-83
2023/04/09 02:20:18;;;;;;;12.50;7.57;;;;;;;;;;5053710;28;20056;-82
2023/04/09 02:22:45;;;;;;;12.95;7.65;;;;;;;;;;5041923;28;20455;-83
2023/04/09 02:25:12;;;;;;;12.15;7.20;;;;;;;;;;5040154;28;20084;-82
2023/04/09 02:27:38;;;;;;;13.10;7.93;;;;;;;;;;5039408;28;20119;-82
2023/04/09 02:30:06;;;;;;;13.55;7.97;;;;;;;;;;5038825;28;20084;-82
2023/04/09 02:32:33;;;;;;;13.30;8.75;;;;;;;;;;5039292;28;20049;-83
2023/04/09 02:35:00;;;;;;;12.15;8.00;;;;;;;;;;5038639;28;20656;-81
2023/04/09 02:37:28;;;;;;;12.68;8.40;;;;;;;;;;5038603;28;20132;-82
2023/04/09 02:39:54;;;;;;;13.00;8.05;;;;;;;;;;5038745;28;20140;-82
2023/04/09 02:42:21;;;;;;;12.95;8.05;;;;;;;;;;5039648;28;20108;-82
2023/04/09 02:44:47;;;;;;;13.13;7.75;;;;;;;;;;5039577;28;20069;-82
2023/04/09 02:47:14;;;;;;;13.05;8.35;;;;;;;;;;5039542;28;20128;-82
2023/04/09 02:49:41;;;;;;;14.32;8.80;;;;;;;;;;5039600;28;20076;-82
2023/04/09 02:52:09;;;;;;;14.93;8.57;;;;;;;;;;5039649;28;20080;-82
2023/04/09 02:54:37;;;;;;;15.77;9.07;;;;;;;;;;5038105;28;20084;-82
2023/04/09 02:57:04;;;;;;;14.38;8.77;;;;;;;;;;5037945;28;20412;-83
2023/04/09 02:59:31;;;;;;;13.85;8.50;;;;;;;;;;5038307;28;20064;-82
2023/04/09 03:01:58;;;;;;;14.02;8.52;;;;;;;;;;5037563;28;20107;-83
2023/04/09 03:04:25;;;;;;;14.98;9.43;;;;;;;;;;5037750;28;20501;-83
2023/04/09 03:06:51;;;;;;;18.40;10.27;;;;;;;;;;5040797;28;20144;-83
2023/04/09 03:09:18;;;;;;;18.17;10.32;;;;;;;;;;5040344;28;20077;-83
2023/04/09 03:11:46;;;;;;;15.45;10.20;;;;;;;;;;5038635;28;20427;-83
2023/04/09 03:14:12;;;;;;;15.60;10.00;;;;;;;;;;5037129;28;20460;-83
2023/04/09 03:16:39;;;;;;;17.15;10.13;;;;;;;;;;5037567;28;20080;-83
2023/04/09 03:19:06;;;;;;;16.42;10.45;;;;;;;;;;5039590;28;20183;-83
2023/04/09 03:21:33;;;;;;;17.30;11.15;;;;;;;;;;5037661;28;20136;-83
2023/04/09 03:24:01;;;;;;;19.23;12.27;;;;;;;;;;5037268;28;20057;-82
2023/04/09 03:26:27;;;;;;;20.77;12.82;;;;;;;;;;5037719;28;20053;-83
2023/04/09 03:28:55;;;;;;;17.30;12.25;;;;;;;;;;5038262;28;20113;-83
2023/04/09 03:31:22;;;;;;;16.95;11.88;;;;;;;;;;5036759;28;20049;-83
2023/04/09 03:33:48;;;;;;;18.42;12.60;;;;;;;;;;5036716;28;20050;-82
2023/04/09 03:36:15;;;;;;;20.90;12.98;;;;;;;;;;5036631;28;20066;-83
2023/04/09 03:38:41;;;;;;;19.38;11.65;;;;;;;;;;5037200;28;20056;-83
2023/04/09 03:41:08;;;;;;;17.95;11.45;;;;;;;;;;5039070;28;20085;-82
2023/04/09 03:43:35;;;;;;;17.00;9.88;;;;;;;;;;5041844;28;20073;-82
2023/04/09 03:46:11;;;;;;;15.60;9.68;;;;;;;;;;5040469;28;20046;-83
2023/04/09 03:48:38;;;;;;;16.77;9.75;;;;;;;;;;5037154;28;20046;-82
2023/04/09 03:51:05;;;;;;;15.27;9.50;;;;;;;;;;5036935;28;20516;-82
2023/04/09 03:53:31;;;;;;;14.90;9.30;;;;;;;;;;5037736;28;20045;-82
2023/04/09 03:55:58;;;;;;;15.95;9.93;;;;;;;;;;5038193;28;20081;-82
2023/04/09 03:58:25;;;;;;;14.45;9.00;;;;;;;;;;5037129;28;20128;-81
2023/04/09 04:00:51;;;;;;;16.20;10.13;;;;;;;;;;5036905;28;20136;-80
2023/04/09 04:03:19;;;;;;;15.73;9.43;;;;;;;;;;5037243;28;20053;-80
2023/04/09 04:05:46;;;;;;;16.70;10.10;;;;;;;;;;5044079;28;20038;-80
2023/04/09 04:08:13;;;;;;;15.30;8.95;;;;;;;;;;5054054;28;20026;-80
2023/04/09 04:10:39;;;;;;;15.95;10.68;;;;;;;;;;5054036;28;20053;-79
2023/04/09 04:13:07;;;;;;;17.40;10.27;;;;;;;;;;5054885;28;20129;-81
2023/04/09 04:15:33;;;;;;;17.48;10.63;;;;;;;;;;5054714;28;20046;-80
2023/04/09 04:18:00;;;;;;;18.40;11.25;;;;;;;;;;5054048;28;20041;-80
2023/04/09 04:20:28;;;;;;;19.08;10.52;;;;;;;;;;5031825;28;20137;-80
2023/04/09 04:22:55;;;;;;;17.77;10.10;;;;;;;;;;5019357;28;20535;-80
2023/04/09 04:25:21;;;;;;;18.20;10.43;;;;;;;;;;5017074;28;20046;-80
2023/04/09 04:27:48;;;;;;;17.00;10.13;;;;;;;;;;5017154;28;20161;-80
2023/04/09 04:30:15;;;;;;;18.23;10.63;;;;;;;;;;5017191;28;20133;-80
2023/04/09 04:32:41;;;;;;;17.42;10.90;;;;;;;;;;5016803;28;20050;-81
2023/04/09 04:35:09;;;;;;;19.27;11.32;;;;;;;;;;5016710;28;20133;-80
2023/04/09 04:37:37;;;;;;;20.38;12.00;;;;;;;;;;5016551;28;20105;-81
2023/04/09 04:40:04;;;;;;;19.73;12.23;;;;;;;;;;5016626;28;20081;-79
2023/04/09 04:42:31;;;;;;;19.23;11.88;;;;;;;;;;5016301;28;20529;-80
2023/04/09 04:44:57;;;;;;;18.65;11.00;;;;;;;;;;5016557;28;20129;-81
2023/04/09 04:47:24;;;;;;;21.73;11.52;;;;;;;;;;5015992;28;20060;-83
2023/04/09 04:49:51;;;;;;;21.50;11.73;;;;;;;;;;5015852;28;20101;-81
2023/04/09 04:52:17;;;;;;;20.85;12.90;;;;;;;;;;5016678;28;20045;-80
2023/04/09 04:54:45;;;;;;;19.13;10.93;;;;;;;;;;5016738;28;20132;-80
2023/04/09 04:57:12;;;;;;;20.42;12.30;;;;;;;;;;5016293;28;20049;-80
2023/04/09 04:59:39;;;;;;;20.70;11.88;;;;;;;;;;5015944;28;20048;-80
2023/04/09 05:02:06;;;;;;;20.88;11.93;;;;;;;;;;5016115;28;20048;-80
2023/04/09 05:04:33;;;;;;;23.23;12.98;;;;;;;;;;5015594;28;20136;-80
2023/04/09 05:07:00;;;;;;;19.55;12.20;;;;;;;;;;5016170;28;20104;-81
2023/04/09 05:09:26;;;;;;;20.88;12.25;;;;;;;;;;5015661;28;20050;-80
2023/04/09 05:11:55;;;;;;;19.95;12.20;;;;;;;;;;5015959;28;20049;-80
2023/04/09 05:14:22;;;;;;;19.80;11.80;;;;;;;;;;5015012;28;20457;-82
2023/04/09 05:16:49;;;;;;;19.55;12.95;;;;;;;;;;5014774;28;20390;-81
2023/04/09 05:19:16;;;;;;;19.30;11.90;;;;;;;;;;5017859;28;20120;-80
2023/04/09 05:21:42;;;;;;;18.85;11.73;;;;;;;;;;5017499;28;20060;-82
2023/04/09 05:24:09;;;;;;;19.63;10.98;;;;;;;;;;5018117;28;20129;-82
2023/04/09 05:26:35;;;;;;;21.05;12.25;;;;;;;;;;5018912;28;20088;-80
2023/04/09 05:29:04;;;;;;;22.85;12.30;;;;;;;;;;5020397;28;20141;-81
2023/04/09 05:31:30;;;;;;;21.05;12.50;;;;;;;;;;5019647;28;20049;-80
2023/04/09 05:33:57;;;;;;;20.33;11.98;;;;;;;;;;5019355;28;20093;-80
2023/04/09 05:36:24;;;;;;;23.10;12.63;;;;;;;;;;5019629;28;20106;-80
2023/04/09 05:38:51;;;;;;;23.23;12.95;;;;;;;;;;5019824;28;20053;-80
2023/04/09 05:41:18;;;;;;;22.65;12.43;;;;;;;;;;5019634;28;20081;-80
2023/04/09 05:43:44;;;;;;;21.20;12.40;;;;;;;;;;5019160;28;20042;-80
2023/04/09 05:46:12;;;;;;;22.20;12.73;;;;;;;;;;5019232;28;20132;-81
2023/04/09 05:48:39;;;;;;;20.85;11.98;;;;;;;;;;5019867;28;20076;-80
2023/04/09 05:51:06;;;;;;;21.58;12.43;;;;;;;;;;5019956;28;20046;-81
2023/04/09 05:53:32;;;;;;;21.83;12.88;;;;;;;;;;5019483;28;20125;-81
2023/04/09 05:55:59;;;;;;;20.42;11.73;;;;;;;;;;5020250;28;20093;-79
2023/04/09 05:58:26;;;;;;;17.45;11.48;;;;;;;;;;5019522;28;20049;-80
2023/04/09 06:00:52;;;;;;;20.08;12.05;;;;;;;;;;5019131;28;20050;-81
2023/04/09 06:03:20;;;;;;;19.95;11.73;;;;;;;;;;5019544;28;20074;-81
2023/04/09 06:05:47;;;;;;;23.52;12.48;;;;;;;;;;5020641;28;20105;-82
2023/04/09 06:08:14;;;;;;;20.70;12.38;;;;;;;;;;5020168;28;20050;-82
2023/04/09 06:10:40;;;;;;;20.40;12.13;;;;;;;;;;5019636;28;20068;-81
2023/04/09 06:13:07;;;;;;;18.88;12.95;;;;;;;;;;5020159;28;20125;-82
2023/04/09 06:15:33;;;;;;;23.75;12.25;;;;;;;;;;5020454;28;20168;-81
2023/04/09 06:18:00;;;;;;;22.25;13.05;;;;;;;;;;5020865;28;20109;-81
2023/04/09 06:20:28;;;;;;;23.17;13.30;;;;;;;;;;5021266;28;20081;-81
2023/04/09 06:22:55;;;;;;;21.30;12.75;;;;;;;;;;5020595;28;20073;-82
2023/04/09 06:25:22;;;;;;;21.52;12.15;;;;;;;;;;5020702;28;20171;-82
2023/04/09 06:27:48;;;;;;;19.95;11.73;;;;;;;;;;5020941;28;20125;-82
2023/04/09 06:30:15;;;;;;;22.77;13.43;;;;;;;;;;5021532;28;20129;-81
2023/04/09 06:32:44;;;;;;;23.55;13.27;;;;;;;;;;5022595;28;20473;-82
2023/04/09 06:35:10;;;;;;;21.05;12.43;;;;;;;;;;5023383;28;20057;-81
2023/04/09 06:37:38;;;;;;;22.70;12.90;;;;;;;;;;5024259;28;20046;-82
2023/04/09 06:40:06;;;;;;;19.73;11.55;;;;;;;;;;5018485;28;20052;-81
2023/04/09 06:42:33;;;;;;;18.40;11.55;;;;;;;;;;5017501;28;20050;-81
2023/04/09 06:45:00;;;;;;;18.85;10.75;;;;;;;;;;5018125;28;20050;-81
2023/04/09 06:47:29;;;;;;;16.35;10.25;;;;;;;;;;5019301;28;20050;-81
2023/04/09 06:49:56;;;;;;;16.85;9.98;;;;;;;;;;5018855;28;20046;-82
2023/04/09 06:52:22;;;;;;;17.92;10.48;;;;;;;;;;5019706;28;20052;-81
2023/04/09 06:54:50;;;;;;;17.33;10.50;;;;;;;;;;5020966;28;20110;-80
2023/04/09 06:57:18;;;;;;;17.42;10.40;;;;;;;;;;5023855;28;20042;-81
2023/04/09 06:59:44;;;;;;;16.52;9.68;;;;;;;;;;5024809;28;20050;-80
2023/04/09 07:02:14;;;;;;;17.77;10.13;;;;;;;;;;5023782;28;20089;-80
2023/04/09 07:04:41;;;;;;;17.00;10.23;;;;;;;;;;5023192;28;20053;-81
2023/04/09 07:07:08;;;;;;;16.00;9.52;;;;;;;;;;5023799;28;20081;-80
2023/04/09 07:09:35;;;;;;;19.08;10.23;;;;;;;;;;5026265;28;20056;-80
2023/04/09 07:12:04;;;;;;;18.13;10.32;;;;;;;;;;5026392;28;20068;-82
2023/04/09 07:14:35;;;;;;;17.48;10.43;;;;;;;;;;5031004;28;20050;-81
2023/04/09 07:17:09;;;;;;;15.95;9.75;;;;;;;;;;5030956;28;20042;-82
2023/04/09 07:19:36;;;;;;;16.05;10.70;;;;;;;;;;5045026;28;20049;-80
2023/04/09 07:22:03;;;;;;;16.35;10.43;;;;;;;;;;5051952;28;20079;-82
2023/04/09 07:24:32;;;;;;;16.73;9.68;;;;;;;;;;5051433;28;20056;-82
2023/04/09 07:27:07;;;;;;;17.58;10.43;;;;;;;;;;5052511;28;20045;-81
2023/04/09 07:29:34;;;;;;;16.67;10.40;;;;;;;;;;5049986;28;20117;-82
2023/04/09 07:32:02;;;;;;;15.75;10.07;;;;;;;;;;5050611;28;20051;-81
2023/04/09 07:34:29;;;;;;;16.52;10.00;;;;;;;;;;5049275;28;20080;-81
2023/04/09 07:36:55;;;;;;;16.83;9.68;;;;;;;;;;5056842;28;20456;-81
2023/04/09 07:39:22;;;;;;;15.82;9.80;;;;;;;;;;5045070;28;20077;-82
2023/04/09 07:41:49;;;;;;;15.43;9.25;;;;;;;;;;5040026;28;20049;-83
2023/04/09 07:44:17;;;;;;;16.27;10.18;;;;;;;;;;5041586;28;20037;-82
2023/04/09 07:46:44;;;;;;;15.10;9.02;;;;;;;;;;5047604;28;20049;-82
2023/04/09 07:49:10;;;;;;;16.33;9.43;;;;;;;;;;5051536;28;20041;-81
2023/04/09 07:51:37;;;;;;;14.05;8.52;;;;;;;;;;5051663;28;20105;-80
2023/04/09 07:54:05;;;;;;;13.88;8.82;;;;;;;;;;5051020;28;20060;-80
2023/04/09 07:56:32;;;;;;;13.93;8.48;;;;;;;;;;5049897;28;20079;-82
2023/04/09 07:58:59;;;;;;;14.45;9.25;;;;;;;;;;5050897;28;20041;-81
2023/04/09 08:01:29;;;;;;;16.08;10.05;;;;;;;;;;5051276;28;20504;-81
2023/04/09 08:03:55;;;;;;;17.17;10.15;;;;;;;;;;5051862;28;20053;-82
2023/04/09 08:06:22;;;;;;;15.20;9.10;;;;;;;;;;5049172;28;20045;-81
2023/04/09 08:08:49;;;;;;;19.05;10.50;;;;;;;;;;5050454;28;20068;-81
2023/04/09 08:11:20;;;;;;;15.90;8.80;;;;;;;;;;5051868;28;20049;-80
2023/04/09 08:13:47;;;;;;;14.45;8.73;;;;;;;;;;5052560;28;20064;-81
2023/04/09 08:16:14;;;;;;;15.68;9.57;;;;;;;;;;5052534;28;20113;-80
2023/04/09 08:18:42;;;;;;;15.57;10.38;;;;;;;;;;5052306;28;20589;-81
2023/04/09 08:21:09;;;;;;;16.75;9.95;;;;;;;;;;5050055;28;20102;-82
2023/04/09 08:23:36;;;;;;;18.13;10.27;;;;;;;;;;5047775;28;20067;-82
2023/04/09 08:26:03;;;;;;;18.00;9.95;;;;;;;;;;5052298;28;20045;-81
2023/04/09 08:28:30;;;;;;;16.67;10.32;;;;;;;;;;5052515;28;20190;-82
2023/04/09 08:30:56;;;;;;;18.40;11.57;;;;;;;;;;5051656;28;20042;-81
2023/04/09 08:33:23;;;;;;;16.58;10.30;;;;;;;;;;5051346;28;20091;-81
2023/04/09 08:35:51;;;;;;;15.70;9.80;;;;;;;;;;5045393;28;20132;-82
2023/04/09 08:38:18;;;;;;;16.30;10.32;;;;;;;;;;5049100;28;20057;-82
2023/04/09 08:40:46;;;;;;;19.23;10.68;;;;;;;;;;5048043;28;20049;-82
2023/04/09 08:43:16;;;;;;;17.10;10.75;;;;;;;;;;5052124;28;20073;-81
2023/04/09 08:45:43;;;;;;;14.32;8.57;;;;;;;;;;5051022;28;20114;-81
2023/04/09 08:48:10;;;;;;;17.13;11.20;;;;;;;;;;5050184;28;20073;-82
2023/04/09 08:50:37;;;;;;;14.90;9.80;;;;;;;;;;5042990;28;20515;-83
2023/04/09 08:53:08;;;;;;;19.25;10.48;;;;;;;;;;5040414;28;20077;-82
2023/04/09 08:55:37;;;;;;;;;;;;;;;;;;5042882;28;20049;-82
2023/04/09 08:58:06;;;;;;;16.52;10.93;;;;;;;;;;5046178;28;19983;-80
2023/04/09 09:00:32;;;;;;;17.88;10.55;;;;;;;;;;5047103;28;20049;-83
2023/04/09 09:03:05;;;;;;;17.40;10.10;;;;;;;;;;5045002;28;20049;-81
2023/04/09 09:05:36;;;;;;;21.27;11.55;;;;;;;;;;5043583;28;20049;-82
2023/04/09 09:08:05;;;;;;;19.48;11.93;;;;;;;;;;5042006;28;20042;-82
2023/04/09 09:10:40;;;;;;;19.23;11.90;;;;;;;;;;5042963;28;20046;-80
2023/04/09 09:13:21;;;;;;;21.52;12.27;;;;;;;;;;5046487;28;20100;-85
2023/04/09 09:15:49;;;;;;;20.65;12.02;;;;;;;;;;5045695;28;20051;-83
2023/04/09 09:18:17;;;;;;;19.25;12.48;;;;;;;;;;5048393;28;20100;-82
2023/04/09 09:20:44;;;;;;;22.05;13.30;;;;;;;;;;5044416;28;20109;-79
2023/04/09 09:23:12;;;;;;;20.45;11.30;;;;;;;;;;5038315;28;20137;-80
2023/04/09 09:25:38;;;;;;;19.48;13.38;;;;;;;;;;5037736;28;20052;-80
2023/04/09 09:28:10;;;;;;;21.27;13.70;;;;;;;;;;5036405;28;20140;-80
2023/04/09 09:30:38;;;;;;;20.05;12.50;;;;;;;;;;5034198;28;20228;-81
2023/04/09 09:33:06;;;;;;;19.88;12.00;;;;;;;;;;5034037;28;20305;-81
2023/04/09 09:35:47;;;;;;;19.35;12.27;;;;;;;;;;5033776;28;20049;-80
2023/04/09 09:38:16;;;;;;;19.20;11.27;;;;;;;;;;5033711;28;20460;-80
2023/04/09 09:40:43;;;;;;;19.30;11.55;;;;;;;;;;5033982;28;20127;-82
2023/04/09 09:43:09;;;;;;;17.83;11.50;;;;;;;;;;5033400;28;20120;-81
2023/04/09 09:45:37;;;;;;;20.27;12.48;;;;;;;;;;5032920;28;20503;-82
2023/04/09 09:48:04;;;;;;;22.77;13.07;;;;;;;;;;5033632;28;20046;-80
2023/04/09 09:50:31;;;;;;;19.02;11.90;;;;;;;;;;5033098;28;20080;-80
2023/04/09 09:53:03;;;;;;;20.20;11.80;;;;;;;;;;5033014;28;20053;-83
2023/04/09 09:55:32;;;;;;;20.45;12.15;;;;;;;;;;5032612;28;20050;-79
2023/04/09 09:58:02;;;;;;;19.13;11.57;;;;;;;;;;5033327;28;20486;-79
2023/04/09 10:00:32;;;;;;;19.48;11.98;;;;;;;;;;5033265;28;20092;-80
2023/04/09 10:03:04;;;;;;;20.23;12.95;;;;;;;;;;5034254;28;20084;-83
2023/04/09 10:05:34;;;;;;;19.65;12.65;;;;;;;;;;5036822;28;20092;-83
2023/04/09 10:08:01;;;;;;;20.65;12.80;;;;;;;;;;5036541;28;20132;-82
2023/04/09 10:10:29;;;;;;;18.23;11.25;;;;;;;;;;5036902;28;20050;-81
2023/04/09 10:12:57;;;;;;;20.33;11.88;;;;;;;;;;5036590;28;20049;-81
2023/04/09 10:15:25;;;;;;;19.08;11.93;;;;;;;;;;5044901;28;20037;-84
2023/04/09 10:17:52;;;;;;;19.88;12.18;;;;;;;;;;5051139;28;20049;-79
2023/04/09 10:20:26;;;;;;;20.75;11.52;;;;;;;;;;5039101;28;20100;-79
2023/04/09 10:22:53;;;;;;;19.40;12.00;;;;;;;;;;5035267;28;20132;-81
2023/04/09 10:25:20;;;;;;;20.70;11.98;;;;;;;;;;5035350;28;20045;-80
2023/04/09 10:28:01;;;;;;;18.88;12.30;;;;;;;;;;5035299;28;20052;-80
2023/04/09 10:30:34;;;;;;;18.52;11.65;;;;;;;;;;5035792;28;20046;-83
2023/04/09 10:33:11;;;;;;;19.88;11.80;;;;;;;;;;5035638;28;20100;-79
2023/04/09 10:35:38;;;;;;;20.58;11.70;;;;;;;;;;5035819;28;20041;-84
2023/04/09 10:38:07;;;;;;;21.83;13.10;;;;;;;;;;5035635;28;20084;-82
2023/04/09 10:40:34;;;;;;;18.92;12.27;;;;;;;;;;5035868;28;20559;-83
2023/04/09 10:43:04;;;;;;;19.13;11.32;;;;;;;;;;5035199;28;20050;-81
2023/04/09 10:45:40;;;;;;;17.75;11.75;;;;;;;;;;5035647;28;20099;-80
2023/04/09 10:48:12;;;;;;;19.10;12.02;;;;;;;;;;5035719;28;20054;-82
2023/04/09 10:50:39;;;;;;;18.13;11.48;;;;;;;;;;5036204;28;20056;-82
2023/04/09 10:53:06;;;;;;;23.20;14.02;;;;;;;;;;5035428;28;20054;-84
2023/04/09 10:55:35;;;;;;;23.08;13.45;;;;;;;;;;5036327;28;20059;-82
2023/04/09 10:58:04;;;;;;;18.40;11.93;;;;;;;;;;5038959;28;20072;-81
2023/04/09 11:00:31;;;;;;;21.83;12.82;;;;;;;;;;5052145;28;20049;-82
2023/04/09 11:03:22;;;;;;;20.27;13.05;;;;;;;;;;5043344;28;20113;-83
2023/04/09 11:05:52;;;;;;;19.85;12.05;;;;;;;;;;5037757;28;20129;-83
2023/04/09 11:08:20;;;;;;;20.97;13.47;;;;;;;;;;5037451;28;20045;-84
2023/04/09 11:10:47;;;;;;;18.63;12.45;;;;;;;;;;5036755;28;20052;-83
2023/04/09 11:13:18;;;;;;;21.70;13.07;;;;;;;;;;5037152;28;20126;-82
2023/04/09 11:15:45;;;;;;;;;;;;;;;;;;5036872;28;20054;-84
2023/04/09 11:18:15;;;;;;;19.52;12.55;;;;;;;;;;5045282;28;19921;-80
2023/04/09 11:20:42;;;;;;;19.15;12.10;;;;;;;;;;5051211;28;20565;-83
2023/04/09 11:23:08;;;;;;;20.65;12.52;;;;;;;;;;5045745;28;20049;-82
2023/04/09 11:25:35;;;;;;;18.95;11.98;;;;;;;;;;5044237;28;20046;-82
2023/04/09 11:28:03;;;;;;;18.58;11.55;;;;;;;;;;5039366;28;20056;-80
2023/04/09 11:30:33;;;;;;;21.67;12.50;;;;;;;;;;5037272;28;20042;-78
2023/04/09 11:33:00;;;;;;;22.05;13.80;;;;;;;;;;5036759;28;20053;-79
2023/04/09 11:35:26;;;;;;;18.52;11.85;;;;;;;;;;5036618;28;20067;-84
2023/04/09 11:37:53;;;;;;;18.83;10.82;;;;;;;;;;5035791;28;20049;-81
2023/04/09 11:40:21;;;;;;;22.05;13.77;;;;;;;;;;5035497;28;20049;-83
2023/04/09 11:42:50;;;;;;;22.10;13.27;;;;;;;;;;5035831;28;20045;-82
2023/04/09 11:45:18;;;;;;;19.88;12.48;;;;;;;;;;5035490;28;20132;-81
2023/04/09 11:47:46;;;;;;;21.15;12.48;;;;;;;;;;5035381;28;20500;-81
2023/04/09 11:50:14;;;;;;;21.13;11.63;;;;;;;;;;5034942;28;20083;-82
2023/04/09 11:52:41;;;;;;;20.25;12.80;;;;;;;;;;5035655;28;20123;-83
2023/04/09 11:55:09;;;;;;;20.73;12.35;;;;;;;;;;5035093;28;20056;-80
2023/04/09 11:57:46;;;;;;;21.17;12.77;;;;;;;;;;5036517;28;20124;-82
2023/04/09 12:00:14;;;;;;;18.83;12.18;;;;;;;;;;5037236;28;20132;-82
2023/04/09 12:02:43;;;;;;;20.75;13.02;;;;;;;;;;5036960;28;20088;-81
2023/04/09 12:05:13;;;;;;;20.25;12.50;;;;;;;;;;5037995;28;20416;-83
2023/04/09 12:07:40;;;;;;;18.85;12.07;;;;;;;;;;5035444;28;20045;-82
2023/04/09 12:10:08;;;;;;;21.98;13.45;;;;;;;;;;5035652;28;20485;-84
2023/04/09 12:12:43;;;;;;;22.25;13.10;;;;;;;;;;5035448;28;20054;-84
2023/04/09 12:15:19;;;;;;;21.83;13.25;;;;;;;;;;5036000;28;20053;-83
2023/04/09 12:17:50;;;;;;;20.50;13.27;;;;;;;;;;5035265;28;20099;-81
2023/04/09 12:20:32;;;;;;;21.88;12.68;;;;;;;;;;5035638;28;20128;-81
2023/04/09 12:23:02;;;;;;;22.58;13.55;;;;;;;;;;5035865;28;20084;-81
2023/04/09 12:25:29;;;;;;;22.90;13.65;;;;;;;;;;5036106;28;20045;-80
2023/04/09 12:27:56;;;;;;;20.70;12.02;;;;;;;;;;5035767;28;20534;-81
2023/04/09 12:30:23;;;;;;;17.15;11.55;;;;;;;;;;5036014;28;20045;-79
2023/04/09 12:32:50;;;;;;;18.58;11.40;;;;;;;;;;5035142;28;20053;-83
2023/04/09 12:35:17;;;;;;;18.55;11.68;;;;;;;;;;5035354;28;20068;-81
2023/04/09 12:37:48;;;;;;;19.58;11.15;;;;;;;;;;5035206;28;20051;-79
2023/04/09 12:40:15;;;;;;;18.90;11.90;;;;;;;;;;5035065;28;20133;-79
2023/04/09 12:42:42;;;;;;;18.27;11.52;;;;;;;;;;5034347;28;20053;-81
2023/04/09 12:45:10;;;;;;;16.75;10.77;;;;;;;;;;5034463;28;20109;-82
2023/04/09 12:47:38;;;;;;;17.27;11.52;;;;;;;;;;5034565;28;20049;-80
2023/04/09 12:50:06;;;;;;;19.05;11.50;;;;;;;;;;5034493;28;20412;-81
2023/04/09 12:52:33;;;;;;;19.38;12.32;;;;;;;;;;5034310;28;20041;-82
2023/04/09 12:55:01;;;;;;;19.35;12.07;;;;;;;;;;5034801;28;20049;-82
2023/04/09 12:57:28;;;;;;;21.13;12.75;;;;;;;;;;5034218;28;20084;-82
2023/04/09 12:59:55;;;;;;;19.42;11.95;;;;;;;;;;5034470;28;20056;-80
2023/04/09 13:02:22;;;;;;;22.70;13.43;;;;;;;;;;5034941;28;20127;-81
2023/04/09 13:04:49;;;;;;;19.25;12.43;;;;;;;;;;5035437;28;20052;-81
2023/04/09 13:07:18;;;;;;;19.20;12.02;;;;;;;;;;5035452;28;20053;-81
2023/04/09 13:09:46;;;;;;;18.25;11.35;;;;;;;;;;5035239;28;20060;-80
2023/04/09 13:12:14;;;;;;;21.40;12.68;;;;;;;;;;5035211;28;20092;-81
2023/04/09 13:14:41;;;;;;;19.55;11.40;;;;;;;;;;5036110;28;20046;-81
2023/04/09 13:17:08;;;;;;;19.42;11.52;;;;;;;;;;5035303;28;20052;-81
2023/04/09 13:19:35;;;;;;;18.38;11.95;;;;;;;;;;5035571;28;20042;-82
2023/04/09 13:22:06;;;;;;;22.15;12.90;;;;;;;;;;5035154;28;20045;-80
2023/04/09 13:24:33;;;;;;;19.58;12.40;;;;;;;;;;5035402;28;20076;-81
2023/04/09 13:27:03;;;;;;;19.30;12.07;;;;;;;;;;5035593;28;20084;-82
2023/04/09 13:29:31;;;;;;;20.42;11.73;;;;;;;;;;5035210;28;20055;-82
2023/04/09 13:32:00;;;;;;;20.20;12.27;;;;;;;;;;5036919;28;20112;-80
2023/04/09 13:34:27;;;;;;;20.33;11.68;;;;;;;;;;5036700;28;20041;-82
2023/04/09 13:36:53;;;;;;;20.00;12.48;;;;;;;;;;5036600;28;20049;-80
2023/04/09 13:39:20;;;;;;;20.77;12.57;;;;;;;;;;5040098;28;20080;-82
2023/04/09 13:41:47;;;;;;;20.33;12.50;;;;;;;;;;5039169;28;20100;-83
2023/04/09 13:44:13;;;;;;;20.50;11.73;;;;;;;;;;5039271;28;20080;-83
2023/04/09 13:46:41;;;;;;;18.38;11.23;;;;;;;;;;5039115;28;20050;-82
2023/04/09 13:49:08;;;;;;;18.90;11.48;;;;;;;;;;5039472;28;20141;-82
2023/04/09 13:51:35;;;;;;;17.38;11.05;;;;;;;;;;5038938;28;20049;-83
2023/04/09 13:54:01;;;;;;;18.75;11.57;;;;;;;;;;5038455;28;20128;-81
2023/04/09 13:56:28;;;;;;;17.35;11.38;;;;;;;;;;5038327;28;20045;-83
2023/04/09 13:58:55;;;;;;;20.83;11.93;;;;;;;;;;5038095;28;20045;-82
2023/04/09 14:01:26;;;;;;;17.30;11.18;;;;;;;;;;5038153;28;20049;-82
2023/04/09 14:03:54;;;;;;;18.25;11.68;;;;;;;;;;5037668;28;20099;-79
2023/04/09 14:06:20;;;;;;;16.55;10.55;;;;;;;;;;5037707;28;20560;-81
2023/04/09 14:08:47;;;;;;;16.50;10.95;;;;;;;;;;5037942;28;20092;-84
2023/04/09 14:11:15;;;;;;;17.98;11.35;;;;;;;;;;5037774;28;20153;-82
2023/04/09 14:13:42;;;;;;;15.63;10.35;;;;;;;;;;5037550;28;20045;-82
2023/04/09 14:16:09;;;;;;;13.48;8.82;;;;;;;;;;5037425;28;20056;-82
2023/04/09 14:18:35;;;;;;;13.43;8.45;;;;;;;;;;5037930;28;20073;-83
2023/04/09 14:21:04;;;;;;;15.35;9.40;;;;;;;;;;5037372;28;20045;-83
2023/04/09 14:23:31;;;;;;;11.43;7.53;;;;;;;;;;5036415;28;20132;-81
2023/04/09 14:25:57;;;;;;;11.95;7.15;;;;;;;;;;5036872;28;20493;-80